Time;durP1;ratioP1;P1;durP2;ratioP2;P2;SDS_P1;SDS_P2;PMS_P1;PMS_P2;Temp;Humidity;BMP_temperature;BMP_pressure;BME280_temperature;BME280_humidity;BME280_pressure;Samples;Min_cycle;Max_cycle;Signal;HPM_P1;HPM_P2
2022/07/18 00:02:27;;;;;;;3.20;1.30;;;;;;;10.17;78.74;97496.03;10408014;28;20232;-69
2022/07/18 00:07:27;;;;;;;4.30;1.63;;;;;;;10.13;78.97;97494.63;10407287;28;20576;-70
2022/07/18 00:12:28;;;;;;;2.67;1.10;;;;;;;10.11;79.62;97508.84;10404058;28;20595;-70
2022/07/18 00:17:28;;;;;;;2.50;1.30;;;;;;;10.16;78.84;97496.16;10407288;28;20199;-69
2022/07/18 00:22:29;;;;;;;1.63;1.30;;;;;;;10.20;78.61;97484.47;10414918;28;20279;-69
2022/07/18 00:27:29;;;;;;;6.57;1.97;;;;;;;10.11;79.23;97483.50;10415352;28;20188;-70
2022/07/18 00:32:30;;;;;;;3.63;1.13;;;;;;;10.10;79.33;97489.66;10415264;28;20181;-69
2022/07/18 00:37:30;;;;;;;2.80;1.30;;;;;;;10.18;79.25;97483.75;10414069;28;20202;-70
2022/07/18 00:42:30;;;;;;;4.57;1.40;;;;;;;10.08;79.19;97489.00;10415097;28;20189;-70
2022/07/18 00:47:31;;;;;;;3.13;1.23;;;;;;;10.11;79.46;97487.91;10414503;28;20187;-69
2022/07/18 00:52:31;;;;;;;8.27;2.07;;;;;;;10.10;79.39;97483.63;10414808;28;20230;-70
2022/07/18 00:57:32;;;;;;;4.03;1.43;;;;;;;10.15;79.25;97490.13;10414231;28;20192;-70
2022/07/18 01:02:32;;;;;;;5.27;1.47;;;;;;;10.21;79.31;97473.03;10394978;28;20604;-70
2022/07/18 01:07:34;;;;;;;4.93;1.50;;;;;;;10.17;78.85;97487.38;10413336;28;20216;-70
2022/07/18 01:12:35;;;;;;;3.10;1.17;;;;;;;10.14;79.04;97495.50;10414142;28;20232;-70
2022/07/18 01:17:35;;;;;;;2.63;1.43;;;;;;;10.08;79.51;97493.41;10413219;28;20295;-70
2022/07/18 01:22:35;;;;;;;4.60;1.30;;;;;;;10.03;79.80;97509.50;10411670;28;20185;-70
2022/07/18 01:27:36;;;;;;;1.50;1.40;;;;;;;9.99;80.27;97508.13;10411883;28;20260;-70
2022/07/18 01:32:36;;;;;;;4.40;1.50;;;;;;;10.07;79.70;97505.66;10411572;28;20247;-70
2022/07/18 01:37:37;;;;;;;3.30;1.50;;;;;;;10.01;80.19;97498.34;10410851;28;20227;-69
2022/07/18 01:42:37;;;;;;;2.60;1.20;;;;;;;9.87;80.60;97515.22;10411928;28;20196;-70
2022/07/18 01:47:38;;;;;;;3.57;1.50;;;;;;;9.86;81.11;97510.94;10411120;28;20231;-70
2022/07/18 01:52:38;;;;;;;4.20;1.53;;;;;;;9.77;82.04;97522.22;10410510;28;20188;-70
2022/07/18 01:57:38;;;;;;;4.50;1.50;;;;;;;9.74;82.29;97518.09;10411900;28;20601;-70
2022/07/18 02:02:39;;;;;;;1.47;1.17;;;;;;;9.75;81.88;97505.81;10410267;28;20232;-70
2022/07/18 02:07:41;;;;;;;4.47;1.63;;;;;;;9.70;82.00;97510.63;10411868;28;20211;-70
2022/07/18 02:12:42;;;;;;;2.10;1.33;;;;;;;9.63;82.44;97502.47;10410453;28;20650;-70
2022/07/18 02:17:44;;;;;;;5.47;1.47;;;;;;;9.62;82.63;97511.28;10410851;28;20208;-70
2022/07/18 02:22:45;;;;;;;1.07;1.07;;;;;;;9.55;83.04;97504.91;10410627;28;20212;-69
2022/07/18 02:27:45;;;;;;;4.23;1.17;;;;;;;9.63;82.22;97490.22;10410682;28;20192;-70
2022/07/18 02:32:46;;;;;;;4.97;1.47;;;;;;;9.72;81.92;97482.53;10410780;28;20629;-70
2022/07/18 02:37:46;;;;;;;8.00;1.67;;;;;;;9.68;81.65;97470.66;10410174;28;20684;-70
2022/07/18 02:42:46;;;;;;;4.50;1.37;;;;;;;9.66;82.06;97483.06;10410596;28;20558;-70
2022/07/18 02:47:47;;;;;;;2.83;1.17;;;;;;;9.66;81.99;97475.22;10409856;28;20189;-70
2022/07/18 02:52:47;;;;;;;3.63;1.73;;;;;;;9.71;81.14;97466.03;10409821;28;20279;-70
2022/07/18 02:57:48;;;;;;;4.03;1.30;;;;;;;9.72;81.50;97465.03;10409799;28;20217;-70
2022/07/18 03:02:49;;;;;;;5.70;1.33;;;;;;;9.75;81.32;97463.94;10407316;28;20355;-69
2022/07/18 03:07:49;;;;;;;4.23;1.20;;;;;;;9.66;81.15;97462.94;10386866;28;20209;-70
2022/07/18 03:12:49;;;;;;;2.70;1.43;;;;;;;9.61;82.16;97475.59;10400660;28;20192;-69
2022/07/18 03:17:50;;;;;;;6.00;1.40;;;;;;;9.57;82.00;97471.59;10402158;28;20231;-69
2022/07/18 03:22:50;;;;;;;3.50;1.47;;;;;;;9.53;82.81;97484.13;10400628;28;20201;-70
2022/07/18 03:27:50;;;;;;;3.77;1.40;;;;;;;9.54;82.73;97477.09;10401309;28;20204;-70
2022/07/18 03:32:51;;;;;;;2.00;1.33;;;;;;;9.54;82.50;97472.69;10400974;28;20184;-70
2022/07/18 03:37:51;;;;;;;3.43;1.50;;;;;;;9.60;82.22;97481.78;10399105;28;20752;-71
2022/07/18 03:42:52;;;;;;;4.30;1.20;;;;;;;9.62;82.58;97480.72;10400329;28;20203;-71
2022/07/18 03:47:52;;;;;;;4.23;1.70;;;;;;;9.62;82.12;97480.72;10400953;28;20200;-70
2022/07/18 03:52:53;;;;;;;3.77;1.50;;;;;;;9.68;82.12;97486.38;10401299;28;20541;-70
2022/07/18 03:57:53;;;;;;;3.13;1.03;;;;;;;9.72;81.78;97493.00;10413961;28;20212;-70
2022/07/18 04:02:53;;;;;;;2.23;1.17;;;;;;;9.77;81.37;97490.81;10417446;28;20319;-71
2022/07/18 04:07:54;;;;;;;5.43;1.40;;;;;;;9.77;81.53;97488.19;10420844;28;20216;-71
2022/07/18 04:12:55;;;;;;;3.90;1.20;;;;;;;9.90;81.11;97480.13;10420636;28;20207;-70
2022/07/18 04:17:55;;;;;;;2.40;1.47;;;;;;;10.00;80.71;97468.72;10420743;28;20637;-70
2022/07/18 04:22:57;;;;;;;4.30;1.43;;;;;;;10.13;80.54;97465.03;10420583;28;20347;-71
2022/07/18 04:27:58;;;;;;;4.37;1.60;;;;;;;10.37;79.75;97455.97;10421220;28;20270;-70
2022/07/18 04:33:02;;;;;;;1.83;1.30;;;;;;;10.60;78.63;97440.84;10421045;28;20275;-70
2022/07/18 04:38:03;;;;;;;4.13;1.63;;;;;;;10.77;79.06;97455.03;10421035;28;20224;-70
2022/07/18 04:43:03;;;;;;;4.13;1.20;;;;;;;11.04;77.35;97441.19;10420849;28;20191;-70
2022/07/18 04:48:05;;;;;;;2.47;0.90;;;;;;;11.31;76.95;97431.72;10420615;28;20194;-70
2022/07/18 04:53:05;;;;;;;1.73;1.05;;;;;;;11.48;75.73;97420.47;10420417;28;20279;-71
2022/07/18 04:58:06;;;;;;;2.88;1.27;;;;;;;11.80;75.41;97419.22;10420522;28;20220;-71
2022/07/18 05:03:06;;;;;;;3.40;1.30;;;;;;;12.12;74.07;97405.63;10420252;28;20236;-71
2022/07/18 05:08:06;;;;;;;3.70;1.23;;;;;;;12.45;72.76;97381.47;10414161;28;20209;-71
2022/07/18 05:13:07;;;;;;;1.45;1.10;;;;;;;12.68;71.97;97389.72;10412670;28;20639;-71
2022/07/18 05:18:07;;;;;;;3.30;1.05;;;;;;;12.95;72.05;97385.28;10413393;28;20307;-71
2022/07/18 05:23:08;;;;;;;1.85;1.33;;;;;;;13.19;70.76;97369.63;10395255;28;20199;-71
2022/07/18 05:28:08;;;;;;;3.83;1.27;;;;;;;13.62;70.37;97369.69;10413014;28;20203;-70
2022/07/18 05:33:09;;;;;;;2.15;1.15;;;;;;;13.92;69.85;97372.75;10412780;28;20283;-70
2022/07/18 05:38:09;;;;;;;6.93;1.85;;;;;;;14.21;68.50;97353.84;10418615;28;20220;-70
2022/07/18 05:43:09;;;;;;;3.33;1.38;;;;;;;14.66;67.60;97343.81;10412618;28;20201;-71
2022/07/18 05:48:10;;;;;;;6.07;1.38;;;;;;;15.05;66.27;97319.31;10412404;28;20277;-70
2022/07/18 05:53:11;;;;;;;3.00;1.25;;;;;;;15.39;65.20;97309.47;10409453;28;20196;-70
2022/07/18 05:58:11;;;;;;;1.90;1.23;;;;;;;15.92;63.35;97296.50;10408798;28;20227;-70
2022/07/18 06:03:12;;;;;;;3.15;1.25;;;;;;;16.39;63.20;97293.63;10410953;28;20726;-71
2022/07/18 06:08:12;;;;;;;5.22;1.17;;;;;;;16.81;61.88;97264.13;10411408;28;20212;-71
2022/07/18 06:13:12;;;;;;;2.20;0.90;;;;;;;17.17;60.47;97247.56;10410790;28;20189;-71
2022/07/18 06:18:13;;;;;;;16.73;1.45;;;;;;;17.72;60.71;97280.56;10410507;28;20563;-71
2022/07/18 06:23:13;;;;;;;5.25;1.30;;;;;;;18.46;58.29;97234.31;10410047;28;20188;-70
2022/07/18 06:28:13;;;;;;;5.38;1.27;;;;;;;19.38;56.13;97207.63;10411238;28;20193;-70
2022/07/18 06:33:14;;;;;;;4.07;1.13;;;;;;;20.44;51.04;97118.25;10410148;28;20295;-71
2022/07/18 06:38:15;;;;;;;2.55;1.00;;;;;;;21.26;48.30;97073.22;10410715;28;20229;-71
2022/07/18 06:43:19;;;;;;;4.35;1.27;;;;;;;22.55;43.03;96978.41;10410071;28;20295;-71
2022/07/18 06:48:19;;;;;;;3.33;1.20;;;;;;;23.26;45.16;97080.19;10410293;28;20351;-71
2022/07/18 06:53:19;;;;;;;3.45;1.35;;;;;;;23.04;41.16;96954.28;10405082;28;20211;-71
2022/07/18 06:58:20;;;;;;;8.57;1.38;;;;;;;23.27;35.59;96803.81;10405536;28;20223;-70
2022/07/18 07:03:20;;;;;;;2.17;0.85;;;;;;;23.92;32.84;96767.09;10406681;28;20234;-71
2022/07/18 07:08:20;;;;;;;1.70;0.90;;;;;;;25.59;30.95;96777.09;10406199;28;20212;-70
2022/07/18 07:13:21;;;;;;;4.95;2.35;;;;;;;25.61;32.47;96857.31;10404875;28;20453;-71
2022/07/18 07:18:21;;;;;;;6.07;2.83;;;;;;;25.66;33.22;96873.47;10401954;28;20224;-71
2022/07/18 07:23:21;;;;;;;4.17;1.43;;;;;;;27.01;30.05;96831.56;10406728;28;20535;-71
2022/07/18 07:28:22;;;;;;;2.43;1.37;;;;;;;26.17;30.52;96825.78;10406036;28;20451;-71
2022/07/18 07:33:22;;;;;;;2.67;1.17;;;;;;;28.25;30.09;96918.31;10406566;28;20439;-71
2022/07/18 07:38:27;;;;;;;4.70;1.20;;;;;;;26.04;32.12;96890.59;10388945;28;20220;-71
2022/07/18 07:43:28;;;;;;;4.03;1.30;;;;;;;26.29;32.04;96914.22;10403320;28;20207;-71
2022/07/18 07:48:28;;;;;;;5.07;1.23;;;;;;;27.72;29.89;96888.75;10403442;28;20676;-71
2022/07/18 07:53:30;;;;;;;4.37;1.20;;;;;;;28.30;31.02;96945.25;10403224;28;20200;-71
2022/07/18 07:58:31;;;;;;;4.72;1.95;;;;;;;27.46;32.27;96971.19;10403892;28;20475;-71
2022/07/18 08:03:31;;;;;;;8.75;2.80;;;;;;;28.13;32.30;96999.34;10405146;28;20236;-71
2022/07/18 08:08:32;;;;;;;6.10;1.57;;;;;;;28.04;30.50;96909.34;10394066;28;20299;-72
2022/07/18 08:13:32;;;;;;;4.73;1.40;;;;;;;27.55;32.17;96969.66;10401968;28;20482;-70
2022/07/18 08:18:32;;;;;;;3.72;1.10;;;;;;;27.99;31.87;96969.38;10401434;28;20475;-71
2022/07/18 08:23:33;;;;;;;2.25;1.35;;;;;;;27.89;31.56;96967.44;10404653;28;20196;-71
2022/07/18 08:28:33;;;;;;;2.63;1.10;;;;;;;28.16;31.46;96968.38;10406963;28;20778;-71
2022/07/18 08:33:33;;;;;;;7.47;1.33;;;;;;;28.74;30.55;96960.22;10407064;28;20972;-72
2022/07/18 08:38:34;;;;;;;10.27;1.70;;;;;;;28.44;31.41;96972.53;10386996;28;20830;-72
2022/07/18 08:43:34;;;;;;;3.53;1.20;;;;;;;30.26;28.81;96955.97;10411454;28;20455;-72
2022/07/18 08:48:35;;;;;;;6.23;1.20;;;;;;;27.61;30.37;96871.72;10412179;28;20525;-72
2022/07/18 08:53:37;;;;;;;9.15;1.90;;;;;;;27.52;32.76;96989.00;10394436;28;20447;-72
2022/07/18 08:58:37;;;;;;;7.28;1.40;;;;;;;29.32;30.06;96968.09;10412327;28;20221;-72
2022/07/18 09:03:38;;;;;;;2.90;1.17;;;;;;;29.14;30.42;96972.09;10411715;28;20747;-72
2022/07/18 09:08:40;;;;;;;5.38;1.30;;;;;;;29.92;28.58;96916.94;10411608;28;20209;-72
2022/07/18 09:13:42;;;;;;;3.03;1.00;;;;;;;28.57;29.99;96912.72;10392392;28;20597;-72
2022/07/18 09:18:45;;;;;;;31.23;2.63;;;;;;;27.61;33.41;97003.59;10410827;28;20251;-72
2022/07/18 09:23:50;;;;;;;3.67;1.23;;;;;;;29.93;30.23;96991.50;10411353;28;20228;-72
2022/07/18 09:28:53;;;;;;;7.95;1.30;;;;;;;30.61;30.43;96992.03;10410899;28;20196;-72
2022/07/18 09:33:57;;;;;;;7.35;1.45;;;;;;;31.28;27.72;96940.97;10410380;28;20192;-72
2022/07/18 09:38:58;;;;;;;3.25;0.93;;;;;;;31.89;27.11;96927.94;10410747;28;20654;-72
2022/07/18 09:43:59;;;;;;;3.42;1.00;;;;;;;30.35;28.26;96914.59;10409864;28;20284;-72
2022/07/18 09:49:11;;;;;;;7.18;1.40;;;;;;;30.32;27.62;96885.41;10392046;28;20223;-72
2022/07/18 09:54:11;;;;;;;3.17;1.23;;;;;;;29.12;28.35;96826.69;10409855;28;20191;-72
2022/07/18 09:59:12;;;;;;;3.55;1.10;;;;;;;30.98;28.29;96942.88;10392354;28;20201;-71
2022/07/18 10:04:13;;;;;;;2.45;1.10;;;;;;;27.31;30.61;96846.25;10391665;28;20251;-71
2022/07/18 10:09:13;;;;;;;1.98;1.10;;;;;;;28.11;30.96;96928.78;10410115;28;20318;-72
2022/07/18 10:14:14;;;;;;;3.35;1.02;;;;;;;30.41;29.10;96950.50;10408276;28;20294;-72
2022/07/18 10:19:14;;;;;;;5.53;1.05;;;;;;;29.53;31.43;96983.19;10407808;28;20199;-72
2022/07/18 10:24:18;;;;;;;5.73;1.13;;;;;;;30.71;28.28;96949.53;10409398;28;20196;-72
2022/07/18 10:29:19;;;;;;;1.83;0.95;;;;;;;29.43;29.78;96961.59;10407977;28;20515;-72
2022/07/18 10:34:28;;;;;;;4.43;1.20;;;;;;;31.48;28.14;96978.69;10390909;28;20212;-73
2022/07/18 10:39:45;;;;;;;1.88;1.05;;;;;;;27.58;29.11;96799.56;10408402;28;20200;-72
2022/07/18 10:44:45;;;;;;;2.10;1.10;;;;;;;28.32;30.44;96924.25;10408096;28;20203;-72
2022/07/18 10:49:46;;;;;;;4.10;1.40;;;;;;;28.15;30.40;96904.78;10406212;28;20224;-72
2022/07/18 10:55:10;;;;;;;3.25;1.23;;;;;;;29.75;28.89;96951.53;10408306;28;20196;-72
2022/07/18 11:00:13;;;;;;;7.35;1.20;;;;;;;29.10;30.31;96930.56;10407364;28;20649;-72
2022/07/18 11:05:22;;;;;;;3.10;1.10;;;;;;;28.06;32.21;96969.97;10388308;28;20240;-72
2022/07/18 11:10:41;;;;;;;3.25;1.02;;;;;;;29.45;28.30;96891.13;10406466;28;20252;-72
2022/07/18 11:15:58;;;;;;;3.95;1.10;;;;;;;28.85;30.54;96925.97;10403539;28;20663;-72
2022/07/18 11:20:59;;;;;;;4.53;1.42;;;;;;;30.83;29.00;96972.69;10399707;28;20640;-72
2022/07/18 11:25:59;;;;;;;2.83;1.55;;;;;;;28.72;29.97;96898.47;10403506;28;20275;-72
2022/07/18 11:31:02;;;;;;;2.00;1.08;;;;;;;31.39;28.62;96985.00;10405526;28;20230;-72
2022/07/18 11:36:12;;;;;;;2.10;1.15;;;;;;;30.16;29.00;96906.28;10406765;28;20185;-72
2022/07/18 11:41:12;;;;;;;2.40;1.10;;;;;;;31.16;28.07;96932.44;10406129;28;20187;-72
2022/07/18 11:46:15;;;;;;;4.82;1.75;;;;;;;28.66;30.31;96871.78;10406688;28;20728;-72
2022/07/18 11:51:19;;;;;;;3.08;1.13;;;;;;;26.41;32.99;96892.59;10405501;28;20545;-72
2022/07/18 11:56:21;;;;;;;5.43;1.73;;;;;;;27.81;31.93;96929.41;10406375;28;20210;-72
2022/07/18 12:01:22;;;;;;;4.85;1.17;;;;;;;27.60;31.54;96891.66;10404044;28;20224;-72
2022/07/18 12:06:23;;;;;;;5.30;1.52;;;;;;;26.70;33.41;96922.72;10405738;28;20236;-72
2022/07/18 12:11:29;;;;;;;6.50;1.40;;;;;;;29.55;30.96;96972.09;10405652;28;20643;-72
2022/07/18 12:16:31;;;;;;;3.78;1.23;;;;;;;30.91;28.99;96945.06;10408630;28;20193;-72
2022/07/18 12:21:44;;;;;;;3.22;1.73;;;;;;;31.63;28.04;96947.97;10414204;28;20653;-72
2022/07/18 12:26:44;;;;;;;2.60;1.35;;;;;;;30.75;28.72;96917.28;10412595;28;20196;-72
2022/07/18 12:31:46;;;;;;;2.95;1.33;;;;;;;30.52;30.23;96962.06;10413002;28;20275;-71
2022/07/18 12:36:51;;;;;;;5.18;1.40;;;;;;;32.07;27.99;96948.00;10413072;28;20284;-71
2022/07/18 12:41:52;;;;;;;1.48;1.00;;;;;;;31.98;27.76;96927.00;10413105;28;20280;-71
2022/07/18 12:46:53;;;;;;;1.63;0.98;;;;;;;32.35;27.65;96957.19;10394542;28;20200;-71
2022/07/18 12:51:53;;;;;;;3.85;1.45;;;;;;;30.20;29.63;96912.75;10414569;28;20227;-71
2022/07/18 12:56:54;;;;;;;4.70;1.40;;;;;;;28.43;31.16;96877.38;10413082;28;20925;-71
2022/07/18 13:01:54;;;;;;;3.27;1.40;;;;;;;27.77;31.75;96873.41;10412878;28;20860;-71
2022/07/18 13:06:54;;;;;;;2.13;1.13;;;;;;;29.38;29.70;96877.94;10414089;28;20978;-71
2022/07/18 13:11:55;;;;;;;1.52;1.20;;;;;;;29.71;29.31;96875.69;10413485;28;20577;-71
2022/07/18 13:16:55;;;;;;;3.03;1.40;;;;;;;28.33;31.31;96907.03;10413392;28;20266;-73
2022/07/18 13:21:57;;;;;;;4.45;1.50;;;;;;;28.85;31.11;96904.41;10411651;28;20509;-72
2022/07/18 13:26:58;;;;;;;2.60;1.33;;;;;;;28.96;30.44;96895.22;10409350;28;20599;-72
2022/07/18 13:31:58;;;;;;;2.60;1.10;;;;;;;27.65;31.70;96872.81;10412743;28;20228;-72
2022/07/18 13:36:58;;;;;;;4.60;1.50;;;;;;;30.19;31.65;96983.31;10394641;28;20451;-72
2022/07/18 13:42:02;;;;;;;3.20;1.20;;;;;;;28.58;30.99;96857.72;10412551;28;20847;-72
2022/07/18 13:47:02;;;;;;;5.13;1.25;;;;;;;29.07;30.15;96874.47;10411963;28;20428;-72
2022/07/18 13:52:03;;;;;;;5.30;1.20;;;;;;;28.04;32.45;96894.00;10412804;28;20232;-71
2022/07/18 13:57:03;;;;;;;2.55;1.10;;;;;;;28.18;30.76;96850.38;10412337;28;20501;-72
2022/07/18 14:02:04;;;;;;;1.70;1.15;;;;;;;29.34;30.89;96904.66;10411238;28;20608;-72
2022/07/18 14:07:06;;;;;;;2.65;1.25;;;;;;;30.07;31.69;96975.50;10411402;28;20704;-72
2022/07/18 14:12:06;;;;;;;4.28;1.25;;;;;;;30.36;31.29;96958.63;10411839;28;20221;-72
2022/07/18 14:17:07;;;;;;;1.80;1.13;;;;;;;31.33;28.31;96913.06;10411429;28;20589;-72
2022/07/18 14:22:09;;;;;;;8.03;1.20;;;;;;;32.46;27.65;96909.84;10411126;28;20781;-72
2022/07/18 14:27:10;;;;;;;2.20;1.50;;;;;;;34.35;25.77;96922.28;10411027;28;20449;-72
2022/07/18 14:32:10;;;;;;;2.63;1.23;;;;;;;34.89;24.95;96893.28;10410345;28;20215;-72
2022/07/18 14:37:10;;;;;;;1.80;1.17;;;;;;;34.45;25.39;96871.16;10410173;28;20497;-72
2022/07/18 14:42:12;;;;;;;1.60;1.10;;;;;;;35.36;24.40;96863.78;10392771;28;20437;-72
2022/07/18 14:47:12;;;;;;;3.60;1.33;;;;;;;31.71;26.81;96761.53;10392221;28;20294;-72
2022/07/18 14:52:13;;;;;;;3.30;1.40;;;;;;;31.89;27.37;96822.25;10410448;28;20266;-72
2022/07/18 14:57:15;;;;;;;5.30;1.53;;;;;;;31.70;29.25;96893.47;10409614;28;20450;-72
2022/07/18 15:02:16;;;;;;;15.02;2.40;;;;;;;32.29;28.51;96883.22;10409508;28;20596;-72
2022/07/18 15:07:16;;;;;;;2.33;0.90;;;;;;;33.43;26.28;96863.22;10408449;28;20247;-72
2022/07/18 15:12:16;;;;;;;3.50;1.30;;;;;;;33.78;26.68;96871.78;10408997;28;20483;-72
2022/07/18 15:17:17;;;;;;;5.93;1.47;;;;;;;34.60;25.34;96847.44;10408125;28;20877;-72
2022/07/18 15:22:17;;;;;;;4.83;1.50;;;;;;;33.07;26.46;96793.28;10408381;28;20891;-72
2022/07/18 15:27:18;;;;;;;5.03;1.67;;;;;;;33.07;27.63;96866.56;10419144;28;20872;-70
2022/07/18 15:32:18;;;;;;;3.90;1.57;;;;;;;33.24;27.88;96882.31;10412626;28;20501;-70
2022/07/18 15:37:18;;;;;;;3.25;1.50;;;;;;;34.11;26.12;96864.28;10407017;28;20512;-71
2022/07/18 15:42:19;;;;;;;5.00;1.33;;;;;;;33.86;25.58;96808.59;10408183;28;20181;-70
2022/07/18 15:47:19;;;;;;;6.05;1.35;;;;;;;32.85;26.52;96799.38;10406826;28;20872;-70
2022/07/18 15:52:19;;;;;;;3.27;1.20;;;;;;;32.12;28.63;96828.72;10408050;28;20299;-71
2022/07/18 15:57:20;;;;;;;4.20;1.30;;;;;;;34.37;25.43;96827.59;10407706;28;20450;-71
2022/07/18 16:02:20;;;;;;;3.03;1.30;;;;;;;33.74;24.52;96740.38;10408336;28;20514;-72
2022/07/18 16:07:21;;;;;;;1.30;1.20;;;;;;;32.41;26.67;96766.19;10407633;28;20474;-72
2022/07/18 16:12:21;;;;;;;3.25;1.30;;;;;;;32.54;26.09;96751.06;10409357;28;20485;-72
2022/07/18 16:17:21;;;;;;;3.03;1.57;;;;;;;32.12;28.05;96798.91;10409322;28;20223;-72
2022/07/18 16:22:22;;;;;;;2.13;1.47;;;;;;;32.59;25.81;96761.00;10409053;28;20440;-72
2022/07/18 16:27:22;;;;;;;4.22;1.70;;;;;;;31.06;30.23;96835.94;10409070;28;20533;-72
2022/07/18 16:32:23;;;;;;;4.40;1.47;;;;;;;30.22;30.65;96817.91;10408967;28;20220;-72
2022/07/18 16:37:23;;;;;;;4.95;1.58;;;;;;;30.10;31.89;96853.38;10408731;28;20500;-72
2022/07/18 16:42:24;;;;;;;2.85;1.35;;;;;;;30.27;29.59;96798.13;10408698;28;20193;-71
2022/07/18 16:47:24;;;;;;;2.63;1.42;;;;;;;30.01;31.49;96849.63;10407965;28;20547;-71
2022/07/18 16:52:26;;;;;;;3.75;1.50;;;;;;;29.60;30.95;96796.59;10408647;28;20231;-71
2022/07/18 16:57:26;;;;;;;3.70;1.42;;;;;;;29.92;30.90;96818.88;10408392;28;20189;-72
2022/07/18 17:02:28;;;;;;;2.63;1.27;;;;;;;29.56;31.28;96817.16;10411661;28;20251;-72
2022/07/18 17:07:28;;;;;;;3.72;1.60;;;;;;;29.54;31.42;96803.09;10415411;28;20213;-72
2022/07/18 17:12:29;;;;;;;3.67;1.20;;;;;;;29.46;32.12;96844.97;10415737;28;20216;-71
2022/07/18 17:17:29;;;;;;;3.10;1.50;;;;;;;29.06;33.28;96873.63;10415252;28;20250;-71
2022/07/18 17:22:30;;;;;;;3.97;1.83;;;;;;;28.87;33.45;96857.22;10415523;28;20611;-71
2022/07/18 17:27:31;;;;;;;3.20;1.60;;;;;;;28.39;33.87;96854.75;10415331;28;20184;-71
2022/07/18 17:32:32;;;;;;;3.15;1.70;;;;;;;28.36;33.40;96839.13;10414277;28;20224;-71
2022/07/18 17:37:32;;;;;;;4.10;1.48;;;;;;;27.62;34.97;96873.34;10414646;28;20200;-71
2022/07/18 17:42:33;;;;;;;4.53;1.40;;;;;;;27.18;35.76;96868.22;10414113;28;20346;-71
2022/07/18 17:47:37;;;;;;;4.05;1.98;;;;;;;27.10;36.67;96914.44;10414003;28;20235;-71
2022/07/18 17:52:38;;;;;;;4.85;1.80;;;;;;;26.93;36.16;96898.47;10414001;28;20701;-71
2022/07/18 17:57:38;;;;;;;2.35;1.45;;;;;;;26.55;36.24;96882.25;10413330;28;20199;-71
2022/07/18 18:02:39;;;;;;;3.58;1.58;;;;;;;26.10;37.35;96912.97;10413438;28;20220;-71
2022/07/18 18:07:42;;;;;;;2.90;1.40;;;;;;;25.65;40.14;96981.84;10412835;28;20244;-71
2022/07/18 18:12:42;;;;;;;3.85;1.45;;;;;;;24.28;45.18;97075.63;10395368;28;20213;-71
2022/07/18 18:17:43;;;;;;;6.93;1.60;;;;;;;23.65;46.80;97096.66;10411680;28;20706;-71
2022/07/18 18:22:43;;;;;;;5.28;1.70;;;;;;;22.78;49.39;97138.75;10413002;28;20185;-70
2022/07/18 18:27:44;;;;;;;5.57;1.55;;;;;;;22.96;49.15;97123.75;10412356;28;20220;-70
2022/07/18 18:32:44;;;;;;;3.35;1.60;;;;;;;22.17;51.63;97167.09;10412550;28;20221;-70
2022/07/18 18:37:44;;;;;;;6.03;1.52;;;;;;;21.48;52.81;97150.97;10412502;28;20227;-71
2022/07/18 18:42:45;;;;;;;4.30;1.70;;;;;;;20.97;53.99;97147.38;10412197;28;20192;-71
2022/07/18 18:47:45;;;;;;;3.90;1.30;;;;;;;20.56;55.24;97156.50;10411757;28;20191;-71
2022/07/18 18:52:46;;;;;;;11.77;1.98;;;;;;;20.42;54.21;97131.78;10405116;28;20707;-71
2022/07/18 18:57:47;;;;;;;6.78;1.85;;;;;;;20.75;54.00;97125.56;10411265;28;20549;-71
2022/07/18 19:02:50;;;;;;;6.40;1.98;;;;;;;20.54;55.00;97147.91;10410438;28;20243;-71
2022/07/18 19:07:51;;;;;;;3.22;2.03;;;;;;;19.86;57.55;97177.47;10410858;28;20594;-72
2022/07/18 19:12:53;;;;;;;5.18;1.90;;;;;;;19.65;59.50;97197.03;10411029;28;20220;-71
2022/07/18 19:17:53;;;;;;;4.65;1.73;;;;;;;19.50;59.66;97178.63;10410499;28;20283;-71
2022/07/18 19:22:56;;;;;;;4.85;2.05;;;;;;;19.53;59.85;97183.53;10409503;28;20199;-72
2022/07/18 19:27:56;;;;;;;2.60;1.48;;;;;;;19.21;59.78;97165.47;10408391;28;20283;-72
2022/07/18 19:32:56;;;;;;;4.95;2.13;;;;;;;19.05;60.28;97168.47;10409054;28;20222;-71
2022/07/18 19:37:57;;;;;;;3.95;1.83;;;;;;;18.84;60.70;97172.88;10409306;28;20200;-71
2022/07/18 19:42:57;;;;;;;4.15;1.63;;;;;;;18.53;61.48;97181.31;10408716;28;20193;-71
2022/07/18 19:47:57;;;;;;;5.32;1.75;;;;;;;18.56;61.63;97180.09;10390836;28;20203;-71
2022/07/18 19:52:58;;;;;;;2.72;1.55;;;;;;;18.29;62.56;97191.34;10409377;28;20231;-71
2022/07/18 19:58:00;;;;;;;6.15;2.00;;;;;;;18.16;62.91;97196.56;10409217;28;20195;-71
2022/07/18 20:03:01;;;;;;;3.15;1.80;;;;;;;18.12;63.62;97205.94;10408831;28;20244;-72
2022/07/18 20:08:04;;;;;;;6.13;2.25;;;;;;;17.96;63.87;97201.69;10409207;28;20212;-71
2022/07/18 20:13:05;;;;;;;2.72;1.90;;;;;;;17.93;64.09;97200.28;10409285;28;20865;-72
2022/07/18 20:18:06;;;;;;;4.80;2.20;;;;;;;17.82;64.75;97209.53;10409001;28;20200;-71
2022/07/18 20:23:06;;;;;;;4.72;1.98;;;;;;;17.62;65.47;97211.16;10409213;28;20215;-71
2022/07/18 20:28:06;;;;;;;3.55;1.88;;;;;;;17.43;65.69;97213.41;10408138;28;20196;-72
2022/07/18 20:33:07;;;;;;;3.33;1.70;;;;;;;17.28;66.43;97215.28;10409049;28;20184;-71
2022/07/18 20:38:09;;;;;;;3.47;1.77;;;;;;;17.20;66.61;97216.22;10413441;28;20226;-71
2022/07/18 20:43:09;;;;;;;3.72;2.20;;;;;;;17.06;66.96;97217.03;10416765;28;20628;-71
2022/07/18 20:48:11;;;;;;;3.42;2.13;;;;;;;16.93;67.36;97204.47;10415868;28;20275;-71
2022/07/18 20:53:11;;;;;;;6.50;2.05;;;;;;;16.80;67.88;97218.34;10416353;28;20645;-71
2022/07/18 20:58:12;;;;;;;2.30;1.73;;;;;;;16.66;68.20;97221.81;10416169;28;20192;-71
2022/07/18 21:09:35;;;;;;;5.05;2.17;;;;;;;16.43;69.42;97209.47;10353826;28;20232;-71
2022/07/18 21:19:54;;;;;;;4.25;2.20;;;;;;;16.39;69.14;97195.00;10413962;28;20729;-71
2022/07/18 21:24:54;;;;;;;3.33;1.80;;;;;;;16.23;70.18;97204.72;10413229;28;20201;-71
2022/07/18 21:29:55;;;;;;;6.97;1.65;;;;;;;16.14;70.51;97210.25;10413893;28;20703;-71
2022/07/18 21:34:55;;;;;;;3.95;1.70;;;;;;;16.11;70.92;97205.31;10413138;28;20683;-71
2022/07/18 21:39:55;;;;;;;3.00;1.83;;;;;;;16.11;70.41;97210.63;10413228;28;20968;-71
2022/07/18 21:44:57;;;;;;;3.53;1.55;;;;;;;16.19;70.07;97202.63;10412672;28;20197;-71
2022/07/18 21:49:57;;;;;;;5.63;2.03;;;;;;;16.21;70.02;97203.25;10411865;28;20692;-71
2022/07/18 21:54:58;;;;;;;3.38;1.80;;;;;;;16.16;69.89;97195.88;10412520;28;20234;-70
2022/07/18 21:59:58;;;;;;;2.25;1.67;;;;;;;16.15;70.19;97204.78;10412490;28;20181;-71
2022/07/18 22:04:59;;;;;;;1.98;1.58;;;;;;;16.04;70.30;97203.41;10412177;28;20358;-73
2022/07/18 22:09:59;;;;;;;6.50;2.08;;;;;;;16.10;70.04;97195.78;10412020;28;20247;-71
2022/07/18 22:15:00;;;;;;;2.90;1.63;;;;;;;16.07;70.54;97188.22;10411551;28;20192;-71
2022/07/18 22:20:00;;;;;;;4.38;1.70;;;;;;;15.98;70.68;97190.91;10411608;28;20283;-71
2022/07/18 22:25:00;;;;;;;6.15;1.80;;;;;;;16.02;70.47;97172.88;10410880;28;20185;-71
2022/07/18 22:30:03;;;;;;;2.67;1.90;;;;;;;16.18;69.66;97159.50;10411283;28;20224;-71
2022/07/18 22:35:04;;;;;;;5.43;1.83;;;;;;;16.13;69.97;97153.13;10410876;28;20271;-71
2022/07/18 22:40:05;;;;;;;3.90;1.65;;;;;;;16.19;69.57;97155.03;10410788;28;20239;-71
2022/07/18 22:45:06;;;;;;;4.07;1.88;;;;;;;16.33;68.79;97138.34;10410197;28;20539;-71
2022/07/18 22:50:06;;;;;;;3.75;1.90;;;;;;;16.28;68.60;97131.97;10410383;28;20217;-70
2022/07/18 22:55:07;;;;;;;6.53;1.98;;;;;;;16.47;67.85;97106.81;10409430;28;20189;-71
2022/07/18 23:00:09;;;;;;;3.58;1.92;;;;;;;16.48;67.32;97105.81;10410098;28;20543;-71
2022/07/18 23:05:23;;;;;;;3.47;1.95;;;;;;;16.65;66.39;97088.72;10409172;28;20306;-71
2022/07/18 23:10:25;;;;;;;4.03;2.10;;;;;;;16.77;65.82;97073.19;10409697;28;20230;-71
2022/07/18 23:15:26;;;;;;;6.47;1.98;;;;;;;16.73;65.71;97072.72;10409717;28;20193;-71
2022/07/18 23:20:27;;;;;;;5.85;1.80;;;;;;;16.80;65.03;97058.75;10408584;28;20517;-71
2022/07/18 23:25:27;;;;;;;4.43;1.80;;;;;;;16.85;64.87;97053.72;10409445;28;20238;-71
2022/07/18 23:30:28;;;;;;;2.75;1.70;;;;;;;16.87;64.37;97054.38;10408780;28;20224;-70
2022/07/18 23:35:28;;;;;;;2.88;1.60;;;;;;;16.86;64.34;97047.41;10408401;28;20193;-71